Time;durP1;ratioP1;P1;durP2;ratioP2;P2;SDS_P1;SDS_P2;PMS_P1;PMS_P2;Temp;Humidity;BMP_temperature;BMP_pressure;BME280_temperature;BME280_humidity;BME280_pressure;Samples;Min_cycle;Max_cycle;Signal;HPM_P1;HPM_P2
2021/05/25 00:02:17;;;;;;;3.30;1.10;;;9.60;99.90;;;;;;4975709;28;20427;-88
2021/05/25 00:04:44;;;;;;;2.80;1.30;;;9.60;99.90;;;;;;4983793;28;20426;-88
2021/05/25 00:07:11;;;;;;;5.20;1.05;;;9.80;99.90;;;;;;4981305;28;20442;-88
2021/05/25 00:09:38;;;;;;;2.20;1.10;;;9.70;99.90;;;;;;4985565;28;20440;-87
2021/05/25 00:12:05;;;;;;;4.20;1.20;;;9.60;99.90;;;;;;4982769;28;20438;-89
2021/05/25 00:14:31;;;;;;;2.75;1.10;;;9.60;99.90;;;;;;5003672;28;20432;-88
2021/05/25 00:16:58;;;;;;;4.95;1.20;;;9.60;99.90;;;;;;5009508;28;20513;-88
2021/05/25 00:19:24;;;;;;;4.00;1.60;;;9.50;99.90;;;;;;4997078;28;20514;-87
2021/05/25 00:21:50;;;;;;;3.78;1.20;;;9.60;99.90;;;;;;4986649;28;20420;-86
2021/05/25 00:24:17;;;;;;;3.58;1.55;;;9.80;99.90;;;;;;4999826;28;20463;-87
2021/05/25 00:26:44;;;;;;;2.65;1.00;;;9.40;99.90;;;;;;4985506;28;20468;-91
2021/05/25 00:29:10;;;;;;;3.90;1.60;;;9.30;99.90;;;;;;4986089;28;20426;-87
2021/05/25 00:31:37;;;;;;;5.00;1.90;;;9.30;99.90;;;;;;4988825;28;20438;-88
2021/05/25 00:34:04;;;;;;;2.50;1.40;;;9.10;99.90;;;;;;4992790;28;20426;-88
2021/05/25 00:36:30;;;;;;;2.63;1.10;;;9.10;99.90;;;;;;4985092;28;20422;-87
2021/05/25 00:38:57;;;;;;;2.40;1.00;;;9.10;99.90;;;;;;4986137;28;20535;-88
2021/05/25 00:41:24;;;;;;;2.30;1.00;;;9.00;99.90;;;;;;4990700;28;20857;-88
2021/05/25 00:43:50;;;;;;;2.10;1.00;;;9.00;99.90;;;;;;4982415;28;20434;-89
2021/05/25 00:46:17;;;;;;;3.30;1.20;;;9.10;99.90;;;;;;4991172;28;20906;-87
2021/05/25 00:48:43;;;;;;;2.40;1.40;;;9.10;99.90;;;;;;4978554;28;20792;-89
2021/05/25 00:51:09;;;;;;;3.08;1.00;;;9.10;99.90;;;;;;4997080;28;20511;-88
2021/05/25 00:53:35;;;;;;;2.30;1.02;;;9.10;99.90;;;;;;4983874;28;20442;-89
2021/05/25 00:56:02;;;;;;;3.50;1.10;;;9.10;99.90;;;;;;4993077;28;20441;-89
2021/05/25 00:58:33;;;;;;;2.60;1.00;;;9.10;99.90;;;;;;4986780;28;20432;-88
2021/05/25 01:01:00;;;;;;;2.40;1.00;;;9.10;99.90;;;;;;5003737;28;20429;-88
2021/05/25 01:03:26;;;;;;;5.03;1.50;;;9.10;99.90;;;;;;4995405;28;20431;-88
2021/05/25 01:05:52;;;;;;;3.80;1.60;;;9.10;99.90;;;;;;5002099;28;20485;-89
2021/05/25 01:08:19;;;;;;;3.15;1.20;;;9.10;99.90;;;;;;5002042;28;20440;-89
2021/05/25 01:10:49;;;;;;;2.20;1.00;;;9.10;99.90;;;;;;4999838;28;20426;-88
2021/05/25 01:13:18;;;;;;;2.30;1.10;;;9.20;99.90;;;;;;4998173;28;20418;-87
2021/05/25 01:15:45;;;;;;;2.40;1.30;;;9.20;99.90;;;;;;4998881;28;20418;-88
2021/05/25 01:18:12;;;;;;;4.20;1.48;;;10.00;99.90;;;;;;4997891;28;20435;-88
2021/05/25 01:20:40;;;;;;;2.38;1.20;;;8.80;99.90;;;;;;5000836;28;20450;-90
2021/05/25 01:23:10;;;;;;;2.60;1.10;;;9.30;99.90;;;;;;5002092;28;20422;-89
2021/05/25 01:25:37;;;;;;;2.90;1.30;;;9.30;99.90;;;;;;4992767;28;20434;-88
2021/05/25 01:28:06;;;;;;;3.00;1.20;;;9.30;99.90;;;;;;5002572;28;20445;-88
2021/05/25 01:30:36;;;;;;;3.65;1.75;;;9.30;99.90;;;;;;4997558;28;20434;-88
2021/05/25 01:33:04;;;;;;;2.30;1.10;;;9.40;99.90;;;;;;4998050;28;20842;-87
2021/05/25 01:35:31;;;;;;;2.25;1.00;;;9.40;99.90;;;;;;4990279;28;20425;-90
2021/05/25 01:38:00;;;;;;;3.20;1.20;;;9.40;99.90;;;;;;4997357;28;20424;-87
2021/05/25 01:40:28;;;;;;;2.75;1.10;;;9.50;99.90;;;;;;4991886;28;20432;-88
2021/05/25 01:42:54;;;;;;;3.10;1.00;;;9.40;99.90;;;;;;4996318;28;20517;-88
2021/05/25 01:45:24;;;;;;;3.20;1.40;;;9.50;99.90;;;;;;4998020;28;20452;-89
2021/05/25 01:47:51;;;;;;;2.42;1.23;;;9.50;99.90;;;;;;4983591;28;20435;-89
2021/05/25 01:50:19;;;;;;;4.30;1.40;;;9.50;99.90;;;;;;4990279;28;20438;-89
2021/05/25 01:52:54;;;;;;;2.20;1.30;;;9.50;99.90;;;;;;4984729;28;20426;-88
2021/05/25 01:55:26;;;;;;;2.20;0.98;;;9.50;99.90;;;;;;4995814;28;20428;-88
2021/05/25 01:57:53;;;;;;;3.22;1.40;;;9.50;99.90;;;;;;5001987;28;20414;-87
2021/05/25 02:00:20;;;;;;;2.88;1.17;;;9.50;99.90;;;;;;4990727;28;20441;-89
2021/05/25 02:02:46;;;;;;;4.55;1.30;;;9.50;99.90;;;;;;4987268;28;20424;-89
2021/05/25 02:05:12;;;;;;;3.00;1.20;;;9.40;99.90;;;;;;4997888;28;20477;-90
2021/05/25 02:07:39;;;;;;;3.70;1.30;;;9.40;99.90;;;;;;4995942;28;20432;-88
2021/05/25 02:10:06;;;;;;;3.45;1.40;;;9.30;99.90;;;;;;4991185;28;20438;-88
2021/05/25 02:12:33;;;;;;;2.53;1.10;;;9.30;99.90;;;;;;4995220;28;20431;-88
2021/05/25 02:15:00;;;;;;;3.90;1.23;;;9.30;99.90;;;;;;4977914;28;20432;-89
2021/05/25 02:17:27;;;;;;;3.90;1.20;;;9.30;99.90;;;;;;4992847;28;20426;-87
2021/05/25 02:19:53;;;;;;;3.33;1.13;;;9.40;99.90;;;;;;4990746;28;20432;-88
2021/05/25 02:22:20;;;;;;;2.60;1.00;;;9.70;99.90;;;;;;4977074;28;20534;-87
2021/05/25 02:24:46;;;;;;;3.13;1.10;;;9.10;99.90;;;;;;4976690;28;20432;-88
2021/05/25 02:27:12;;;;;;;2.70;1.40;;;9.10;99.90;;;;;;4982481;28;20427;-88
2021/05/25 02:29:38;;;;;;;4.47;1.30;;;9.00;99.90;;;;;;4987317;28;20434;-87
2021/05/25 02:32:06;;;;;;;3.55;1.10;;;8.90;99.90;;;;;;4980765;28;20430;-87
2021/05/25 02:34:33;;;;;;;2.10;1.20;;;8.80;99.90;;;;;;4983622;28;20915;-89
2021/05/25 02:36:59;;;;;;;3.38;1.20;;;8.80;99.90;;;;;;4986596;28;20494;-87
2021/05/25 02:39:25;;;;;;;4.70;1.40;;;8.70;99.90;;;;;;4994619;28;20422;-87
2021/05/25 02:41:52;;;;;;;3.30;1.20;;;8.80;99.90;;;;;;4979107;28;20790;-88
2021/05/25 02:44:18;;;;;;;2.80;1.10;;;8.70;99.90;;;;;;4998143;28;20440;-89
2021/05/25 02:46:44;;;;;;;3.80;1.52;;;8.70;99.90;;;;;;4990108;28;20424;-89
2021/05/25 02:49:11;;;;;;;3.10;1.70;;;8.70;99.90;;;;;;4991101;28;20441;-89
2021/05/25 02:51:38;;;;;;;3.35;1.58;;;8.70;99.90;;;;;;4995976;28;20452;-90
2021/05/25 02:54:04;;;;;;;3.83;1.35;;;8.70;99.90;;;;;;4982865;28;20975;-88
2021/05/25 02:56:30;;;;;;;2.60;1.00;;;8.70;99.90;;;;;;4981940;28;20423;-89
2021/05/25 02:58:56;;;;;;;2.50;1.00;;;9.30;99.90;;;;;;4991305;28;20489;-88
2021/05/25 03:01:23;;;;;;;2.20;0.98;;;8.60;99.90;;;;;;4978590;28;20451;-89
2021/05/25 03:03:49;;;;;;;2.50;1.13;;;8.80;99.90;;;;;;4982903;28;20432;-88
2021/05/25 03:06:16;;;;;;;3.20;1.38;;;8.80;99.90;;;;;;4986036;28;20452;-89
2021/05/25 03:08:43;;;;;;;3.15;1.30;;;8.60;99.90;;;;;;4985226;28;20487;-89
2021/05/25 03:11:09;;;;;;;2.67;1.05;;;8.80;99.90;;;;;;4976201;28;20440;-89
2021/05/25 03:13:36;;;;;;;2.92;1.20;;;8.80;99.90;;;;;;4993878;28;20980;-89
2021/05/25 03:16:02;;;;;;;3.13;0.98;;;8.80;99.90;;;;;;4993078;28;20444;-89
2021/05/25 03:18:28;;;;;;;5.22;1.30;;;8.80;99.90;;;;;;4993671;28;20433;-89
2021/05/25 03:20:55;;;;;;;3.28;1.08;;;8.80;99.90;;;;;;4977256;28;20845;-89
2021/05/25 03:23:22;;;;;;;4.80;1.50;;;8.90;99.90;;;;;;4982928;28;20502;-88
2021/05/25 03:25:50;;;;;;;3.10;1.02;;;8.80;99.90;;;;;;4975361;28;20438;-89
2021/05/25 03:28:17;;;;;;;3.45;1.10;;;8.90;99.90;;;;;;4985646;28;20435;-87
2021/05/25 03:30:43;;;;;;;2.80;1.02;;;8.90;99.90;;;;;;4978470;28;20871;-89
2021/05/25 03:33:10;;;;;;;3.58;1.00;;;8.90;99.90;;;;;;4982946;28;20428;-90
2021/05/25 03:35:37;;;;;;;2.88;1.20;;;9.00;99.90;;;;;;4977706;28;20927;-90
2021/05/25 03:38:04;;;;;;;3.00;1.00;;;9.00;99.90;;;;;;4989517;28;20429;-89
2021/05/25 03:40:31;;;;;;;2.53;1.10;;;9.00;99.90;;;;;;4988352;28;20908;-88
2021/05/25 03:42:57;;;;;;;3.50;1.40;;;9.00;99.90;;;;;;4990131;28;20442;-89
2021/05/25 03:45:25;;;;;;;2.22;0.85;;;9.00;99.90;;;;;;4991173;28;20438;-89
2021/05/25 03:47:52;;;;;;;2.92;1.00;;;9.00;99.90;;;;;;4985582;28;20911;-88
2021/05/25 03:50:19;;;;;;;2.00;0.90;;;9.00;99.90;;;;;;4986045;28;20436;-89
2021/05/25 03:52:48;;;;;;;2.38;1.02;;;9.00;99.90;;;;;;4981935;28;20517;-88
2021/05/25 03:55:23;;;;;;;2.25;0.95;;;9.00;99.90;;;;;;4989429;28;20424;-90
2021/05/25 04:00:35;;;;;;;2.80;1.10;;;9.10;99.90;;;;;;4986654;28;20425;-89
2021/05/25 04:03:02;;;;;;;2.90;1.00;;;9.10;99.90;;;;;;4992704;28;20426;-90
2021/05/25 04:05:28;;;;;;;2.40;1.00;;;8.90;99.90;;;;;;4994006;28;20473;-89
2021/05/25 04:07:55;;;;;;;3.55;1.20;;;9.10;99.90;;;;;;4986972;28;20433;-89
2021/05/25 04:10:21;;;;;;;2.05;0.95;;;9.10;99.90;;;;;;4977471;28;20444;-90
2021/05/25 04:12:48;;;;;;;2.70;1.10;;;9.10;99.90;;;;;;4980577;28;20489;-91
2021/05/25 04:15:16;;;;;;;2.90;1.20;;;9.10;99.90;;;;;;4982845;28;20592;-89
2021/05/25 04:17:42;;;;;;;2.20;1.00;;;9.70;99.90;;;;;;4992430;28;20450;-90
2021/05/25 04:20:10;;;;;;;2.00;1.10;;;9.10;99.90;;;;;;4993008;28;20775;-90
2021/05/25 04:22:37;;;;;;;3.30;1.00;;;9.10;99.90;;;;;;4982825;28;20972;-90
2021/05/25 04:25:04;;;;;;;2.10;0.80;;;9.10;99.90;;;;;;4985651;28;20426;-90
2021/05/25 04:27:31;;;;;;;3.72;0.90;;;9.10;99.90;;;;;;4992463;28;20553;-89
2021/05/25 04:29:57;;;;;;;2.08;1.10;;;9.00;99.90;;;;;;4988269;28;20926;-88
2021/05/25 04:32:24;;;;;;;2.70;1.00;;;8.80;99.90;;;;;;4974677;28;20494;-88
2021/05/25 04:34:50;;;;;;;3.13;1.10;;;8.60;99.90;;;;;;4988644;28;20437;-88
2021/05/25 04:37:17;;;;;;;2.53;1.30;;;8.40;99.90;;;;;;4983079;28;20495;-90
2021/05/25 04:39:43;;;;;;;3.80;1.10;;;8.30;99.90;;;;;;4985663;28;20980;-88
2021/05/25 04:42:09;;;;;;;2.30;1.00;;;8.20;99.90;;;;;;4981280;28;20431;-89
2021/05/25 04:44:36;;;;;;;2.53;1.13;;;8.20;99.90;;;;;;4984975;28;20442;-87
2021/05/25 04:47:02;;;;;;;4.70;1.60;;;8.10;99.90;;;;;;4975469;28;20443;-88
2021/05/25 04:49:29;;;;;;;2.50;1.20;;;8.10;99.90;;;;;;4988509;28;20434;-87
2021/05/25 04:51:55;;;;;;;3.03;1.23;;;8.10;99.90;;;;;;4984485;28;21178;-89
2021/05/25 04:54:22;;;;;;;2.50;1.05;;;8.20;99.90;;;;;;4984346;28;20430;-88
2021/05/25 04:56:48;;;;;;;2.30;1.20;;;8.20;99.90;;;;;;4984533;28;20521;-88
2021/05/25 04:59:14;;;;;;;2.00;1.00;;;8.30;99.90;;;;;;4981552;28;20435;-88
2021/05/25 05:01:41;;;;;;;2.47;1.10;;;8.30;99.90;;;;;;4983352;28;20438;-88
2021/05/25 05:04:07;;;;;;;3.90;1.30;;;8.40;99.90;;;;;;4981807;28;20427;-89
2021/05/25 05:06:34;;;;;;;4.50;1.10;;;8.50;99.90;;;;;;4982545;28;20434;-88
2021/05/25 05:09:00;;;;;;;2.47;1.35;;;8.50;99.90;;;;;;4991620;28;20426;-87
2021/05/25 05:11:27;;;;;;;3.42;1.50;;;8.50;99.90;;;;;;4981384;28;20467;-87
2021/05/25 05:13:53;;;;;;;2.80;1.40;;;8.50;99.90;;;;;;4988278;28;20810;-88
2021/05/25 05:16:19;;;;;;;3.10;1.30;;;8.50;99.90;;;;;;4981612;28;20426;-88
2021/05/25 05:18:46;;;;;;;3.70;1.50;;;8.60;99.90;;;;;;4978676;28;20428;-88
2021/05/25 05:21:12;;;;;;;4.10;1.42;;;8.60;99.90;;;;;;4987250;28;20437;-88
2021/05/25 05:23:39;;;;;;;3.40;1.20;;;8.60;99.90;;;;;;4991777;28;20483;-88
2021/05/25 05:26:05;;;;;;;2.40;1.33;;;8.70;99.90;;;;;;4981612;28;20831;-87
2021/05/25 05:28:32;;;;;;;2.55;1.40;;;8.70;99.90;;;;;;4988564;28;20487;-88
2021/05/25 05:30:58;;;;;;;3.80;1.70;;;8.70;99.90;;;;;;4987260;28;20442;-88
2021/05/25 05:33:24;;;;;;;3.38;1.58;;;8.50;99.90;;;;;;4992139;28;20426;-87
2021/05/25 05:35:51;;;;;;;2.25;1.25;;;8.80;99.90;;;;;;4999602;28;20929;-88
2021/05/25 05:38:17;;;;;;;2.60;1.58;;;8.80;99.90;;;;;;5001428;28;20432;-88
2021/05/25 05:40:44;;;;;;;3.83;1.90;;;8.90;99.90;;;;;;5007417;28;20498;-88
2021/05/25 05:43:11;;;;;;;2.53;1.60;;;8.90;99.90;;;;;;5004438;28;20480;-89
2021/05/25 05:45:38;;;;;;;2.55;1.50;;;9.00;99.90;;;;;;4997490;28;20434;-88
2021/05/25 05:48:05;;;;;;;3.20;1.80;;;9.10;99.90;;;;;;4996401;28;20775;-87
2021/05/25 05:50:32;;;;;;;2.10;1.40;;;9.20;99.90;;;;;;4993600;28;20434;-88
2021/05/25 05:52:58;;;;;;;3.03;1.55;;;9.10;99.90;;;;;;4995096;28;20439;-87
2021/05/25 05:55:35;;;;;;;;;;;;;;;;;;;;;
2021/05/25 05:58:05;;;;;;;2.80;1.70;;;8.90;99.90;;;;;;5001129;28;20438;-89
2021/05/25 06:00:31;;;;;;;3.42;1.90;;;9.30;99.90;;;;;;4993681;28;20433;-88
2021/05/25 06:02:58;;;;;;;3.55;1.70;;;9.40;99.90;;;;;;4981623;28;20472;-89
2021/05/25 06:05:24;;;;;;;3.20;1.60;;;9.40;99.90;;;;;;4989781;28;20429;-88
2021/05/25 06:07:50;;;;;;;3.03;1.40;;;9.40;99.90;;;;;;4998886;28;20425;-88
2021/05/25 06:10:18;;;;;;;3.70;1.92;;;9.20;99.90;;;;;;4992440;28;20434;-88
2021/05/25 06:12:44;;;;;;;2.97;1.80;;;9.20;99.90;;;;;;4990375;28;20429;-88
2021/05/25 06:15:13;;;;;;;3.00;1.85;;;9.30;99.90;;;;;;4984714;28;20540;-86
2021/05/25 06:17:39;;;;;;;3.72;1.70;;;9.30;99.90;;;;;;4980474;28;20640;-87
2021/05/25 06:20:07;;;;;;;2.50;1.70;;;9.20;99.90;;;;;;4989475;28;20899;-87
2021/05/25 06:22:34;;;;;;;4.10;2.00;;;9.20;99.90;;;;;;4989660;28;20423;-86
2021/05/25 06:25:00;;;;;;;3.65;2.10;;;10.00;99.90;;;;;;4996880;28;20428;-85
2021/05/25 06:27:26;;;;;;;4.50;2.50;;;8.90;99.90;;;;;;4994890;28;20495;-87
2021/05/25 06:29:53;;;;;;;3.20;2.30;;;8.80;99.90;;;;;;4989387;28;20507;-89
2021/05/25 06:32:20;;;;;;;6.07;2.80;;;8.70;99.90;;;;;;4993590;28;20477;-90
2021/05/25 06:34:47;;;;;;;4.10;2.70;;;8.70;99.90;;;;;;4992240;28;20903;-89
2021/05/25 06:37:13;;;;;;;5.30;3.17;;;8.70;99.90;;;;;;4994773;28;20783;-88
2021/05/25 06:39:39;;;;;;;4.40;2.55;;;8.80;99.90;;;;;;4992546;28;20469;-87
2021/05/25 06:42:07;;;;;;;3.80;2.60;;;8.70;99.90;;;;;;4982071;28;20443;-87
2021/05/25 06:44:34;;;;;;;3.90;2.17;;;8.70;99.90;;;;;;4987480;28;20977;-88
2021/05/25 06:47:00;;;;;;;3.13;1.85;;;8.70;99.90;;;;;;4988009;28;20435;-89
2021/05/25 06:49:27;;;;;;;2.80;2.00;;;8.80;99.90;;;;;;4987253;28;20774;-88
2021/05/25 06:51:54;;;;;;;3.72;1.60;;;8.90;99.90;;;;;;4994848;28;20434;-90
2021/05/25 06:54:20;;;;;;;3.70;1.70;;;9.10;99.90;;;;;;4997672;28;20499;-88
2021/05/25 06:56:47;;;;;;;4.13;1.73;;;9.10;99.90;;;;;;4990733;28;20941;-88
2021/05/25 06:59:13;;;;;;;2.60;1.50;;;9.20;99.90;;;;;;4996849;28;20421;-89
2021/05/25 07:01:39;;;;;;;2.40;1.30;;;9.20;99.90;;;;;;4988152;28;20426;-88
2021/05/25 07:04:08;;;;;;;2.80;1.60;;;9.10;99.90;;;;;;4990487;28;20435;-88
2021/05/25 07:06:35;;;;;;;3.47;1.60;;;9.00;99.90;;;;;;4990076;28;20526;-90
2021/05/25 07:09:03;;;;;;;2.72;1.40;;;9.10;99.90;;;;;;4994040;28;20896;-89
2021/05/25 07:11:29;;;;;;;3.03;1.23;;;9.10;99.90;;;;;;4987677;28;20440;-91
2021/05/25 07:13:57;;;;;;;2.75;1.10;;;8.90;99.90;;;;;;4990803;28;20435;-94
2021/05/25 07:16:23;;;;;;;2.95;1.00;;;8.80;99.90;;;;;;4989873;28;20463;-90
2021/05/25 07:18:50;;;;;;;2.30;1.10;;;8.50;99.90;;;;;;4989075;28;20434;-89
2021/05/25 07:21:16;;;;;;;2.00;1.00;;;8.40;99.90;;;;;;4995368;28;20432;-91
2021/05/25 07:23:43;;;;;;;2.38;1.08;;;8.40;99.90;;;;;;4988916;28;20444;-91
2021/05/25 07:26:10;;;;;;;2.83;1.20;;;8.40;99.90;;;;;;4987479;28;20445;-91
2021/05/25 07:28:36;;;;;;;2.40;1.20;;;8.20;99.90;;;;;;4987990;28;20873;-89
2021/05/25 07:31:02;;;;;;;2.10;1.10;;;8.60;99.90;;;;;;4991137;28;20436;-89
2021/05/25 07:33:29;;;;;;;3.08;1.27;;;8.70;99.90;;;;;;4987332;28;20426;-88
2021/05/25 07:35:55;;;;;;;2.40;1.20;;;8.70;99.90;;;;;;4993268;28;20476;-87
2021/05/25 07:38:22;;;;;;;2.42;1.25;;;8.80;99.90;;;;;;4998674;28;20514;-89
2021/05/25 07:40:49;;;;;;;2.20;1.20;;;9.00;99.90;;;;;;4988560;28;20440;-88
2021/05/25 07:43:15;;;;;;;2.72;1.20;;;9.20;99.90;;;;;;4994660;28;20446;-88
2021/05/25 07:45:43;;;;;;;1.90;0.90;;;9.40;99.90;;;;;;4987175;28;20515;-88
2021/05/25 07:48:09;;;;;;;2.40;1.20;;;8.30;99.90;;;;;;4986424;28;20845;-88
2021/05/25 07:50:36;;;;;;;2.60;1.10;;;9.50;99.90;;;;;;4986391;28;20434;-88
2021/05/25 07:53:03;;;;;;;2.58;1.10;;;9.30;99.90;;;;;;4985417;28;20430;-88
2021/05/25 07:55:31;;;;;;;2.22;1.20;;;9.10;99.90;;;;;;4991614;28;20492;-89
2021/05/25 07:57:59;;;;;;;2.50;1.40;;;9.20;99.90;;;;;;4985434;28;20430;-88
2021/05/25 08:00:27;;;;;;;2.60;1.25;;;9.20;99.90;;;;;;4989542;28;20443;-87
2021/05/25 08:02:56;;;;;;;2.70;1.45;;;9.10;99.90;;;;;;4983489;28;20935;-88
2021/05/25 08:05:24;;;;;;;3.53;1.60;;;9.00;99.90;;;;;;4993087;28;20462;-87
2021/05/25 08:07:51;;;;;;;3.42;1.75;;;8.90;99.90;;;;;;4993818;28;20442;-87
2021/05/25 08:10:18;;;;;;;2.90;1.90;;;8.80;99.90;;;;;;4981682;28;20448;-87
2021/05/25 08:12:45;;;;;;;3.30;1.73;;;8.80;99.90;;;;;;4996915;28;20439;-88
2021/05/25 08:15:14;;;;;;;2.50;1.65;;;8.90;99.90;;;;;;4988688;28;20437;-86
2021/05/25 08:17:50;;;;;;;4.50;2.30;;;9.00;99.90;;;;;;4996313;28;20471;-86
2021/05/25 08:20:18;;;;;;;4.63;2.00;;;9.30;99.90;;;;;;4988975;28;20436;-85
2021/05/25 08:22:46;;;;;;;3.00;1.92;;;8.80;99.90;;;;;;4985103;28;20430;-87
2021/05/25 08:25:14;;;;;;;3.10;1.90;;;9.50;99.90;;;;;;4993607;28;20946;-86
2021/05/25 08:27:41;;;;;;;2.83;2.17;;;9.70;99.90;;;;;;4985829;28;20436;-88
2021/05/25 08:30:09;;;;;;;2.77;2.20;;;9.60;99.90;;;;;;4992266;28;20432;-90
2021/05/25 08:32:37;;;;;;;3.45;2.38;;;9.90;99.90;;;;;;4992004;28;20445;-87
2021/05/25 08:35:04;;;;;;;3.83;2.88;;;10.10;99.90;;;;;;4984661;28;20935;-87
2021/05/25 08:37:32;;;;;;;2.90;2.45;;;10.00;99.90;;;;;;4994489;28;20430;-89
2021/05/25 08:39:59;;;;;;;4.93;2.88;;;10.00;99.90;;;;;;4991903;28;20461;-89
2021/05/25 08:42:25;;;;;;;3.30;2.47;;;10.10;99.90;;;;;;4994077;28;20472;-88
2021/05/25 08:44:51;;;;;;;3.77;3.20;;;10.20;99.90;;;;;;4993462;28;20435;-88
2021/05/25 08:47:19;;;;;;;3.67;2.85;;;9.70;99.90;;;;;;4989526;28;20434;-87
2021/05/25 08:49:47;;;;;;;4.60;3.13;;;9.90;99.90;;;;;;4990163;28;20446;-89
2021/05/25 08:52:15;;;;;;;3.60;3.00;;;9.90;99.90;;;;;;4988763;28;20476;-85
2021/05/25 08:54:42;;;;;;;3.60;3.15;;;9.80;99.90;;;;;;4994402;28;20425;-92
2021/05/25 08:57:09;;;;;;;4.90;3.20;;;9.80;99.90;;;;;;4981460;28;20425;-90
2021/05/25 08:59:36;;;;;;;3.60;2.80;;;9.90;99.90;;;;;;4988295;28;20434;-91
2021/05/25 09:02:04;;;;;;;4.30;3.50;;;9.80;99.90;;;;;;4991522;28;20434;-90
2021/05/25 09:04:58;;;;;;;4.30;3.50;;;9.90;99.90;;;;;;5002688;28;20483;-92
2021/05/25 09:07:36;;;;;;;4.47;3.90;;;9.90;99.90;;;;;;4995693;28;20427;-89
2021/05/25 09:10:05;;;;;;;4.88;3.78;;;10.00;99.90;;;;;;4996807;28;20440;-90
2021/05/25 09:12:37;;;;;;;4.70;3.70;;;10.20;99.90;;;;;;4986120;28;20431;-86
2021/05/25 09:15:05;;;;;;;5.03;3.78;;;10.60;99.90;;;;;;4993329;28;20429;-87
2021/05/25 09:17:32;;;;;;;4.80;3.58;;;11.00;99.90;;;;;;4989274;28;20509;-87
2021/05/25 09:20:00;;;;;;;4.20;3.80;;;11.30;99.90;;;;;;4995316;28;20444;-88
2021/05/25 09:22:29;;;;;;;4.28;3.80;;;11.40;99.90;;;;;;4994988;28;20432;-87
2021/05/25 09:24:56;;;;;;;5.13;3.78;;;11.40;99.90;;;;;;4992714;28;20434;-90
2021/05/25 09:27:37;;;;;;;3.80;2.90;;;11.50;99.90;;;;;;4990985;28;20439;-89
2021/05/25 09:30:12;;;;;;;3.15;2.55;;;11.30;99.90;;;;;;4995520;28;20434;-88
2021/05/25 09:32:45;;;;;;;3.20;2.70;;;11.20;99.90;;;;;;4989465;28;20481;-89
2021/05/25 09:35:22;;;;;;;3.42;2.72;;;11.40;99.90;;;;;;4999535;28;20973;-89
2021/05/25 09:37:51;;;;;;;3.00;2.67;;;11.40;99.90;;;;;;4992917;28;20432;-88
2021/05/25 09:40:19;;;;;;;4.53;3.72;;;11.70;99.90;;;;;;4995985;28;20437;-89
2021/05/25 09:42:47;;;;;;;4.55;3.55;;;11.90;99.90;;;;;;4997615;28;20435;-89
2021/05/25 09:45:15;;;;;;;4.80;2.88;;;12.30;99.90;;;;;;4989449;28;20422;-88
2021/05/25 09:47:43;;;;;;;4.70;3.70;;;12.70;99.90;;;;;;4988509;28;20937;-88
2021/05/25 09:50:12;;;;;;;4.80;3.30;;;12.80;99.90;;;;;;4998731;28;20444;-85
2021/05/25 09:53:00;;;;;;;5.60;3.40;;;12.60;99.90;;;;;;4994504;28;20462;-87
2021/05/25 09:55:28;;;;;;;4.35;3.30;;;12.30;99.90;;;;;;4985657;28;20431;-88
2021/05/25 09:57:56;;;;;;;5.00;3.28;;;12.30;99.90;;;;;;5000493;28;20436;-87
2021/05/25 10:00:29;;;;;;;3.53;2.92;;;12.30;99.90;;;;;;5000872;28;20440;-86
2021/05/25 10:03:17;;;;;;;4.68;3.60;;;11.70;99.90;;;;;;4991466;28;20427;-86
2021/05/25 10:05:47;;;;;;;5.18;3.70;;;11.80;99.90;;;;;;4984790;28;20434;-88
2021/05/25 10:08:16;;;;;;;3.78;3.17;;;12.00;99.90;;;;;;4987669;28;20881;-88
2021/05/25 10:10:44;;;;;;;3.80;2.70;;;11.90;99.90;;;;;;4996248;28;20556;-85
2021/05/25 10:13:12;;;;;;;5.50;3.95;;;12.70;99.90;;;;;;4996903;28;20430;-86
2021/05/25 10:15:38;;;;;;;5.20;4.10;;;11.70;99.90;;;;;;4995353;28;20449;-86
2021/05/25 10:20:53;;;;;;;5.20;4.50;;;11.20;99.90;;;;;;4986845;28;20410;-86
2021/05/25 10:23:20;;;;;;;4.77;4.10;;;12.00;99.90;;;;;;4989970;28;20428;-87
2021/05/25 10:25:49;;;;;;;5.28;4.20;;;11.90;99.90;;;;;;4995627;28;20441;-86
2021/05/25 10:28:15;;;;;;;5.30;4.40;;;12.30;99.90;;;;;;4996800;28;20476;-86
2021/05/25 10:30:45;;;;;;;4.35;3.78;;;12.60;99.90;;;;;;4991311;28;20944;-85
2021/05/25 10:33:29;;;;;;;4.15;2.38;;;12.50;99.90;;;;;;4990590;28;20461;-86
2021/05/25 10:36:01;;;;;;;4.95;2.90;;;12.00;99.90;;;;;;4995836;28;20830;-85
2021/05/25 10:38:30;;;;;;;4.32;2.70;;;11.20;99.90;;;;;;4993284;28;20426;-86
2021/05/25 10:40:58;;;;;;;3.50;2.60;;;10.50;99.90;;;;;;4994704;28;20779;-87
2021/05/25 10:43:45;;;;;;;4.65;2.83;;;10.00;99.90;;;;;;4989279;28;20437;-87
2021/05/25 10:46:35;;;;;;;5.13;2.72;;;9.60;99.90;;;;;;4986471;28;20426;-87
2021/05/25 10:49:12;;;;;;;4.28;2.92;;;9.60;99.90;;;;;;4995359;28;20418;-88
2021/05/25 10:52:12;;;;;;;6.22;3.15;;;9.50;99.90;;;;;;4992518;28;20517;-88
2021/05/25 10:54:48;;;;;;;5.40;3.80;;;9.50;99.90;;;;;;4981567;28;20853;-88
2021/05/25 10:57:37;;;;;;;6.10;3.90;;;9.60;99.90;;;;;;4993888;28;20429;-89
2021/05/25 11:00:09;;;;;;;5.38;4.18;;;9.60;99.90;;;;;;4988138;28;20493;-88
2021/05/25 11:02:53;;;;;;;5.75;3.53;;;9.70;99.90;;;;;;5008825;28;20443;-87
2021/05/25 11:05:56;;;;;;;4.53;3.80;;;9.90;99.90;;;;;;5005086;28;20431;-88
2021/05/25 11:08:30;;;;;;;6.40;4.65;;;10.00;99.90;;;;;;4997317;28;20422;-87
2021/05/25 11:11:08;;;;;;;4.55;4.00;;;10.10;99.90;;;;;;4994969;28;20438;-87
2021/05/25 11:13:42;;;;;;;6.43;3.75;;;10.30;99.90;;;;;;4979981;28;20434;-87
2021/05/25 11:16:13;;;;;;;5.40;4.18;;;10.50;99.90;;;;;;4995048;28;20426;-86
2021/05/25 11:18:43;;;;;;;4.97;4.00;;;10.60;99.90;;;;;;4994187;28;20492;-86
2021/05/25 11:21:32;;;;;;;7.25;4.38;;;10.70;99.90;;;;;;4983844;28;20781;-84
2021/05/25 11:23:58;;;;;;;7.05;4.40;;;10.80;99.90;;;;;;4988284;28;20490;-87
2021/05/25 11:26:58;;;;;;;6.20;4.53;;;10.80;99.90;;;;;;5002408;28;20505;-87
2021/05/25 11:29:27;;;;;;;8.93;4.82;;;10.60;99.90;;;;;;4999298;28;20508;-92
2021/05/25 11:31:57;;;;;;;3.70;2.40;;;10.10;99.90;;;;;;4982200;28;20500;-91
2021/05/25 11:34:25;;;;;;;3.50;1.60;;;9.40;99.90;;;;;;4991678;28;20488;-91
2021/05/25 11:37:00;;;;;;;5.80;2.30;;;8.70;99.90;;;;;;5000538;28;20793;-93
2021/05/25 11:39:28;;;;;;;3.92;2.25;;;8.40;99.90;;;;;;4991424;28;20437;-92
2021/05/25 11:41:56;;;;;;;3.80;3.40;;;8.30;99.90;;;;;;4991347;28;20787;-91
2021/05/25 11:44:31;;;;;;;5.60;4.20;;;8.40;99.90;;;;;;4981219;28;20435;-93
2021/05/25 11:46:58;;;;;;;5.35;4.60;;;8.20;99.90;;;;;;5002963;28;20490;-91
2021/05/25 11:49:26;;;;;;;6.57;5.70;;;8.30;99.90;;;;;;4987110;28;20505;-91
2021/05/25 11:51:55;;;;;;;8.80;7.15;;;8.40;99.90;;;;;;4992116;28;20518;-93
2021/05/25 11:54:21;;;;;;;9.00;6.60;;;8.60;99.90;;;;;;4999921;28;20435;-90
2021/05/25 11:56:50;;;;;;;9.63;8.60;;;8.70;99.90;;;;;;4993081;28;20503;-90
2021/05/25 11:59:20;;;;;;;12.13;8.45;;;9.10;99.90;;;;;;5002186;28;20498;-88
2021/05/25 12:01:49;;;;;;;8.18;7.25;;;9.30;99.90;;;;;;4896979;28;20413;-87
2021/05/25 12:04:16;;;;;;;8.38;6.15;;;10.00;99.90;;;;;;4989080;28;20422;-86
2021/05/25 12:06:50;;;;;;;6.93;5.80;;;10.50;99.90;;;;;;4987023;28;20863;-87
2021/05/25 12:09:18;;;;;;;5.93;5.00;;;11.30;99.90;;;;;;4992177;28;20465;-84
2021/05/25 12:11:45;;;;;;;5.80;4.18;;;12.10;99.90;;;;;;4987326;28;20431;-83
2021/05/25 12:14:14;;;;;;;7.00;4.30;;;12.20;99.90;;;;;;5006346;28;20513;-84
2021/05/25 12:16:42;;;;;;;5.70;4.95;;;12.20;99.90;;;;;;5008688;28;20499;-83
2021/05/25 12:19:09;;;;;;;7.15;5.40;;;11.90;99.90;;;;;;5004544;28;20619;-83
2021/05/25 12:21:36;;;;;;;10.45;6.57;;;11.70;99.90;;;;;;4980524;28;21276;-83
2021/05/25 12:24:03;;;;;;;11.00;6.22;;;11.70;99.90;;;;;;4981668;28;20496;-84
2021/05/25 12:26:29;;;;;;;8.38;6.30;;;12.60;99.90;;;;;;4988814;28;20503;-84
2021/05/25 12:28:57;;;;;;;5.37;4.83;;;13.10;99.90;;;;;;4989074;28;20442;-85
2021/05/25 12:31:29;;;;;;;8.20;6.10;;;14.00;99.90;;;;;;4977620;28;20498;-84
2021/05/25 12:33:56;;;;;;;8.07;5.82;;;14.90;99.90;;;;;;4992058;28;20453;-84
2021/05/25 12:36:29;;;;;;;7.45;6.00;;;15.40;99.90;;;;;;4977802;28;20435;-84
2021/05/25 12:39:01;;;;;;;6.68;5.97;;;14.50;99.90;;;;;;4983938;28;20430;-88
2021/05/25 12:41:38;;;;;;;9.60;6.28;;;13.60;99.90;;;;;;4994929;28;20496;-87
2021/05/25 12:44:08;;;;;;;10.65;8.00;;;12.90;99.90;;;;;;4981463;28;20432;-86
2021/05/25 12:46:36;;;;;;;17.20;10.73;;;12.00;99.90;;;;;;4986031;28;20451;-91
2021/05/25 12:49:04;;;;;;;8.20;3.78;;;11.20;99.90;;;;;;4988279;28;20433;-88
2021/05/25 12:51:30;;;;;;;4.22;3.30;;;9.50;99.90;;;;;;4989432;28;20305;-89
2021/05/25 12:54:00;;;;;;;8.93;3.97;;;8.70;99.90;;;;;;4997182;28;20205;-92
2021/05/25 12:56:26;;;;;;;5.00;4.10;;;8.40;99.90;;;;;;4998516;28;20187;-89
2021/05/25 12:58:54;;;;;;;5.32;4.40;;;8.30;99.90;;;;;;4994669;28;20277;-90
2021/05/25 13:01:28;;;;;;;5.40;4.47;;;8.30;99.90;;;;;;4995194;28;20244;-90
2021/05/25 13:03:55;;;;;;;7.43;4.80;;;8.20;99.90;;;;;;4992905;28;20245;-88
2021/05/25 13:06:26;;;;;;;7.28;5.13;;;8.20;99.90;;;;;;4995082;28;20197;-90
2021/05/25 13:09:07;;;;;;;5.43;3.75;;;8.30;99.90;;;;;;4992267;28;20260;-92